sensor_id;sensor_type;location;lat;lon;timestamp;P1;durP1;ratioP1;P2;durP2;ratioP2
22515;SDS011;11424;48.860;9.624;2023-07-20T00:00:42;35.4;;;36.9;;
22515;SDS011;11424;48.860;9.624;2023-07-20T00:05:42;35.1;;;36.7;;
22515;SDS011;11424;48.860;9.624;2023-07-20T00:10:42;33.7;;;35.1;;
22515;SDS011;11424;48.860;9.624;2023-07-20T00:15:42;40.8;;;43.4;;
22515;SDS011;11424;48.860;9.624;2023-07-20T00:20:42;40.9;;;43.5;;
22515;SDS011;11424;48.860;9.624;2023-07-20T00:25:42;40.4;;;43;;
22515;SDS011;11424;48.860;9.624;2023-07-20T00:30:42;37.3;;;39.6;;
22515;SDS011;11424;48.860;9.624;2023-07-20T00:35:42;13.3;;;14.7;;
22515;SDS011;11424;48.860;9.624;2023-07-20T00:40:42;4;;;4.2;;
22515;SDS011;11424;48.860;9.624;2023-07-20T00:45:42;4.1;;;4.3;;
22515;SDS011;11424;48.860;9.624;2023-07-20T00:50:42;4.2;;;4.4;;
22515;SDS011;11424;48.860;9.624;2023-07-20T00:55:42;8.9;;;12.2;;
22515;SDS011;11424;48.860;9.624;2023-07-20T01:00:42;8.7;;;11.6;;
22515;SDS011;11424;48.860;9.624;2023-07-20T01:05:43;10;;;12.9;;
22515;SDS011;11424;48.860;9.624;2023-07-20T01:10:43;30;;;32;;
22515;SDS011;11424;48.860;9.624;2023-07-20T01:15:42;39.4;;;41.8;;
22515;SDS011;11424;48.860;9.624;2023-07-20T01:20:42;37.1;;;39.3;;
22515;SDS011;11424;48.860;9.624;2023-07-20T01:25:45;34.7;;;36.2;;
22515;SDS011;11424;48.860;9.624;2023-07-20T01:30:45;34.5;;;36;;
22515;SDS011;11424;48.860;9.624;2023-07-20T01:35:42;40.4;;;42.9;;
22515;SDS011;11424;48.860;9.624;2023-07-20T01:40:42;28;;;29.9;;
22515;SDS011;11424;48.860;9.624;2023-07-20T01:45:42;10.4;;;12.2;;
22515;SDS011;11424;48.860;9.624;2023-07-20T01:50:42;32.7;;;35;;
22515;SDS011;11424;48.860;9.624;2023-07-20T01:55:42;23.1;;;24.7;;
22515;SDS011;11424;48.860;9.624;2023-07-20T02:00:42;14.1;;;15.5;;
22515;SDS011;11424;48.860;9.624;2023-07-20T02:05:42;5.8;;;10.7;;
22515;SDS011;11424;48.860;9.624;2023-07-20T02:10:42;2.7;;;2.9;;
22515;SDS011;11424;48.860;9.624;2023-07-20T02:15:42;31.2;;;33.2;;
22515;SDS011;11424;48.860;9.624;2023-07-20T02:20:42;24.2;;;26;;
22515;SDS011;11424;48.860;9.624;2023-07-20T02:25:42;34.2;;;36.5;;
22515;SDS011;11424;48.860;9.624;2023-07-20T02:30:42;41.9;;;44.5;;
22515;SDS011;11424;48.860;9.624;2023-07-20T02:35:42;42.4;;;44.9;;
22515;SDS011;11424;48.860;9.624;2023-07-20T02:40:42;42.3;;;44.8;;
22515;SDS011;11424;48.860;9.624;2023-07-20T02:45:43;42;;;44.5;;
22515;SDS011;11424;48.860;9.624;2023-07-20T02:50:43;26.5;;;28.6;;
22515;SDS011;11424;48.860;9.624;2023-07-20T02:55:42;27;;;29;;
22515;SDS011;11424;48.860;9.624;2023-07-20T03:00:42;45.4;;;48.3;;
22515;SDS011;11424;48.860;9.624;2023-07-20T03:05:42;40.5;;;42.9;;
22515;SDS011;11424;48.860;9.624;2023-07-20T03:10:42;43.2;;;45.8;;
22515;SDS011;11424;48.860;9.624;2023-07-20T03:15:42;41.1;;;43.6;;
22515;SDS011;11424;48.860;9.624;2023-07-20T03:20:42;42.8;;;45.4;;
22515;SDS011;11424;48.860;9.624;2023-07-20T03:25:42;41.6;;;44.2;;
22515;SDS011;11424;48.860;9.624;2023-07-20T03:30:42;42.1;;;44.7;;
22515;SDS011;11424;48.860;9.624;2023-07-20T03:35:42;41.6;;;43.9;;
22515;SDS011;11424;48.860;9.624;2023-07-20T03:40:48;35.9;;;37.5;;
22515;SDS011;11424;48.860;9.624;2023-07-20T03:45:42;35.1;;;36.7;;
22515;SDS011;11424;48.860;9.624;2023-07-20T03:50:43;35.5;;;37.1;;
22515;SDS011;11424;48.860;9.624;2023-07-20T03:55:44;42.4;;;45.1;;
22515;SDS011;11424;48.860;9.624;2023-07-20T04:00:44;41.4;;;44.2;;
22515;SDS011;11424;48.860;9.624;2023-07-20T04:05:42;41.6;;;44.2;;
22515;SDS011;11424;48.860;9.624;2023-07-20T04:10:43;43.2;;;45.9;;
22515;SDS011;11424;48.860;9.624;2023-07-20T04:15:42;40.5;;;43;;
22515;SDS011;11424;48.860;9.624;2023-07-20T04:20:42;35.4;;;37;;
22515;SDS011;11424;48.860;9.624;2023-07-20T04:25:42;31.5;;;32.9;;
22515;SDS011;11424;48.860;9.624;2023-07-20T04:30:42;35.8;;;37.4;;
22515;SDS011;11424;48.860;9.624;2023-07-20T04:35:46;42.1;;;44.7;;
22515;SDS011;11424;48.860;9.624;2023-07-20T04:40:42;41.9;;;44.5;;
22515;SDS011;11424;48.860;9.624;2023-07-20T04:45:42;39.1;;;41.5;;
22515;SDS011;11424;48.860;9.624;2023-07-20T04:50:43;45.8;;;48.9;;
22515;SDS011;11424;48.860;9.624;2023-07-20T04:55:47;43.9;;;46.7;;
22515;SDS011;11424;48.860;9.624;2023-07-20T05:00:42;39.8;;;42.3;;
22515;SDS011;11424;48.860;9.624;2023-07-20T05:05:42;49.6;;;51.9;;
22515;SDS011;11424;48.860;9.624;2023-07-20T05:10:42;38.4;;;40.3;;
22515;SDS011;11424;48.860;9.624;2023-07-20T05:15:42;42.1;;;44.5;;
22515;SDS011;11424;48.860;9.624;2023-07-20T05:20:42;45.2;;;47.9;;
22515;SDS011;11424;48.860;9.624;2023-07-20T05:25:42;44.6;;;47.4;;
22515;SDS011;11424;48.860;9.624;2023-07-20T05:30:42;46.2;;;48.9;;
22515;SDS011;11424;48.860;9.624;2023-07-20T05:35:42;41.8;;;44.3;;
22515;SDS011;11424;48.860;9.624;2023-07-20T05:40:43;46.2;;;49;;
22515;SDS011;11424;48.860;9.624;2023-07-20T05:45:42;54.2;;;57.5;;
22515;SDS011;11424;48.860;9.624;2023-07-20T05:50:42;38.1;;;39.9;;
22515;SDS011;11424;48.860;9.624;2023-07-20T05:55:42;44.4;;;47.1;;
22515;SDS011;11424;48.860;9.624;2023-07-20T06:00:42;48.3;;;51.5;;
22515;SDS011;11424;48.860;9.624;2023-07-20T06:05:42;52.3;;;55.6;;
22515;SDS011;11424;48.860;9.624;2023-07-20T06:10:42;50.9;;;54;;
22515;SDS011;11424;48.860;9.624;2023-07-20T06:15:42;58.7;;;62.5;;
22515;SDS011;11424;48.860;9.624;2023-07-20T06:20:42;50.2;;;53.3;;
22515;SDS011;11424;48.860;9.624;2023-07-20T06:25:42;47.1;;;50.1;;
22515;SDS011;11424;48.860;9.624;2023-07-20T06:30:42;49;;;52;;
22515;SDS011;11424;48.860;9.624;2023-07-20T06:35:42;50.6;;;53.8;;
22515;SDS011;11424;48.860;9.624;2023-07-20T06:40:42;50.3;;;53.7;;
22515;SDS011;11424;48.860;9.624;2023-07-20T06:45:42;46.5;;;49.3;;
22515;SDS011;11424;48.860;9.624;2023-07-20T06:50:42;48.3;;;51.4;;
22515;SDS011;11424;48.860;9.624;2023-07-20T06:55:42;48.8;;;52;;
22515;SDS011;11424;48.860;9.624;2023-07-20T07:00:42;49.9;;;53;;
22515;SDS011;11424;48.860;9.624;2023-07-20T07:05:42;47.2;;;50.3;;
22515;SDS011;11424;48.860;9.624;2023-07-20T07:10:42;48.8;;;51.9;;
22515;SDS011;11424;48.860;9.624;2023-07-20T07:15:42;44.5;;;47.3;;
22515;SDS011;11424;48.860;9.624;2023-07-20T07:20:49;36.1;;;37.7;;
22515;SDS011;11424;48.860;9.624;2023-07-20T07:25:42;36.3;;;37.9;;
22515;SDS011;11424;48.860;9.624;2023-07-20T07:30:42;34.8;;;36.3;;
22515;SDS011;11424;48.860;9.624;2023-07-20T07:35:42;43.8;;;46.7;;
22515;SDS011;11424;48.860;9.624;2023-07-20T07:40:42;45.8;;;48.8;;
22515;SDS011;11424;48.860;9.624;2023-07-20T07:45:42;42.7;;;45.4;;
22515;SDS011;11424;48.860;9.624;2023-07-20T07:50:42;36.5;;;38.7;;
22515;SDS011;11424;48.860;9.624;2023-07-20T07:55:42;34.7;;;37;;
22515;SDS011;11424;48.860;9.624;2023-07-20T08:00:42;34.7;;;36.2;;
22515;SDS011;11424;48.860;9.624;2023-07-20T08:05:42;34.3;;;35.8;;
22515;SDS011;11424;48.860;9.624;2023-07-20T08:10:42;36;;;37.6;;
22515;SDS011;11424;48.860;9.624;2023-07-20T08:15:48;44.8;;;47.7;;
22515;SDS011;11424;48.860;9.624;2023-07-20T08:20:43;44.5;;;47.3;;
22515;SDS011;11424;48.860;9.624;2023-07-20T08:25:42;46.1;;;49.1;;
22515;SDS011;11424;48.860;9.624;2023-07-20T08:30:43;21.1;;;23;;
22515;SDS011;11424;48.860;9.624;2023-07-20T08:35:42;40;;;42.6;;
22515;SDS011;11424;48.860;9.624;2023-07-20T08:40:43;44.2;;;47.2;;
22515;SDS011;11424;48.860;9.624;2023-07-20T08:45:42;34.9;;;36.4;;
22515;SDS011;11424;48.860;9.624;2023-07-20T08:50:42;36.7;;;38.4;;
22515;SDS011;11424;48.860;9.624;2023-07-20T08:55:42;46.9;;;49.9;;
22515;SDS011;11424;48.860;9.624;2023-07-20T09:00:42;44.8;;;47.8;;
22515;SDS011;11424;48.860;9.624;2023-07-20T09:05:42;44.5;;;47.6;;
22515;SDS011;11424;48.860;9.624;2023-07-20T09:10:42;43.2;;;46;;
22515;SDS011;11424;48.860;9.624;2023-07-20T09:15:45;37.7;;;40.2;;
22515;SDS011;11424;48.860;9.624;2023-07-20T09:20:42;42.2;;;44.9;;
22515;SDS011;11424;48.860;9.624;2023-07-20T09:25:42;34.7;;;37.3;;
22515;SDS011;11424;48.860;9.624;2023-07-20T09:30:42;35.7;;;37.3;;
22515;SDS011;11424;48.860;9.624;2023-07-20T09:35:42;25.8;;;28;;
22515;SDS011;11424;48.860;9.624;2023-07-20T09:40:42;43.6;;;46.6;;
22515;SDS011;11424;48.860;9.624;2023-07-20T09:45:42;43.6;;;46.5;;
22515;SDS011;11424;48.860;9.624;2023-07-20T09:50:43;40.9;;;43.5;;
22515;SDS011;11424;48.860;9.624;2023-07-20T09:55:43;23.6;;;25.6;;
22515;SDS011;11424;48.860;9.624;2023-07-20T10:00:43;19.3;;;21;;
22515;SDS011;11424;48.860;9.624;2023-07-20T10:05:43;24;;;26;;
22515;SDS011;11424;48.860;9.624;2023-07-20T10:10:42;37.7;;;40;;
22515;SDS011;11424;48.860;9.624;2023-07-20T10:15:43;40;;;42.6;;
22515;SDS011;11424;48.860;9.624;2023-07-20T10:20:42;24.4;;;26.1;;
22515;SDS011;11424;48.860;9.624;2023-07-20T10:25:42;34.5;;;36.9;;
22515;SDS011;11424;48.860;9.624;2023-07-20T10:30:42;21.2;;;22.9;;
22515;SDS011;11424;48.860;9.624;2023-07-20T10:35:50;35.5;;;37.8;;
22515;SDS011;11424;48.860;9.624;2023-07-20T10:40:42;30.9;;;32.9;;
22515;SDS011;11424;48.860;9.624;2023-07-20T10:45:49;35.8;;;38.1;;
22515;SDS011;11424;48.860;9.624;2023-07-20T10:50:43;11.5;;;12.8;;
22515;SDS011;11424;48.860;9.624;2023-07-20T10:55:43;35.3;;;37.3;;
22515;SDS011;11424;48.860;9.624;2023-07-20T11:00:58;15.3;;;15.9;;
22515;SDS011;11424;48.860;9.624;2023-07-20T11:05:42;21.4;;;22.3;;
22515;SDS011;11424;48.860;9.624;2023-07-20T11:10:42;33.1;;;34.5;;
22515;SDS011;11424;48.860;9.624;2023-07-20T11:15:44;38.6;;;41.2;;
22515;SDS011;11424;48.860;9.624;2023-07-20T11:20:42;40.4;;;43;;
22515;SDS011;11424;48.860;9.624;2023-07-20T11:25:42;40.2;;;42.6;;
22515;SDS011;11424;48.860;9.624;2023-07-20T11:30:42;41.8;;;44.2;;
22515;SDS011;11424;48.860;9.624;2023-07-20T11:35:43;42.8;;;45.3;;
22515;SDS011;11424;48.860;9.624;2023-07-20T11:40:43;35.6;;;37.2;;
22515;SDS011;11424;48.860;9.624;2023-07-20T11:45:42;38.6;;;40.3;;
22515;SDS011;11424;48.860;9.624;2023-07-20T11:50:43;36.1;;;37.7;;
22515;SDS011;11424;48.860;9.624;2023-07-20T11:55:43;42.4;;;44.9;;
22515;SDS011;11424;48.860;9.624;2023-07-20T12:00:43;42.7;;;45.1;;
22515;SDS011;11424;48.860;9.624;2023-07-20T12:05:42;43.6;;;46.1;;
22515;SDS011;11424;48.860;9.624;2023-07-20T12:10:42;43.4;;;46;;
22515;SDS011;11424;48.860;9.624;2023-07-20T12:15:43;40.9;;;43.3;;
22515;SDS011;11424;48.860;9.624;2023-07-20T12:20:42;38;;;40.2;;
22515;SDS011;11424;48.860;9.624;2023-07-20T12:25:44;33.4;;;34.8;;
22515;SDS011;11424;48.860;9.624;2023-07-20T12:30:43;33.8;;;35.2;;
22515;SDS011;11424;48.860;9.624;2023-07-20T12:35:43;40.1;;;42.7;;
22515;SDS011;11424;48.860;9.624;2023-07-20T12:40:43;40.8;;;43.2;;
22515;SDS011;11424;48.860;9.624;2023-07-20T12:45:43;42.5;;;44.9;;
22515;SDS011;11424;48.860;9.624;2023-07-20T12:50:43;42.2;;;44.6;;
22515;SDS011;11424;48.860;9.624;2023-07-20T12:55:43;39.9;;;42.1;;
22515;SDS011;11424;48.860;9.624;2023-07-20T13:00:43;37.6;;;40.1;;
22515;SDS011;11424;48.860;9.624;2023-07-20T13:05:43;41.2;;;44.1;;
22515;SDS011;11424;48.860;9.624;2023-07-20T13:10:43;32.7;;;34.1;;
22515;SDS011;11424;48.860;9.624;2023-07-20T13:15:44;37.8;;;40.2;;
22515;SDS011;11424;48.860;9.624;2023-07-20T13:20:43;36.9;;;38.9;;
22515;SDS011;11424;48.860;9.624;2023-07-20T13:25:43;38.8;;;41.2;;
22515;SDS011;11424;48.860;9.624;2023-07-20T13:30:43;37.1;;;39.4;;
22515;SDS011;11424;48.860;9.624;2023-07-20T13:35:43;37.5;;;39.8;;
22515;SDS011;11424;48.860;9.624;2023-07-20T13:40:43;38.2;;;40.8;;
22515;SDS011;11424;48.860;9.624;2023-07-20T13:45:43;40;;;42.7;;
22515;SDS011;11424;48.860;9.624;2023-07-20T13:50:43;36.9;;;39.3;;
22515;SDS011;11424;48.860;9.624;2023-07-20T13:55:43;41;;;43.5;;
22515;SDS011;11424;48.860;9.624;2023-07-20T14:00:43;44.3;;;46.8;;
22515;SDS011;11424;48.860;9.624;2023-07-20T14:05:43;41.9;;;44.2;;
22515;SDS011;11424;48.860;9.624;2023-07-20T14:10:43;45.4;;;48;;
22515;SDS011;11424;48.860;9.624;2023-07-20T14:15:43;41.8;;;44.2;;
22515;SDS011;11424;48.860;9.624;2023-07-20T14:20:43;40.2;;;42.5;;
22515;SDS011;11424;48.860;9.624;2023-07-20T14:25:43;42.4;;;44.9;;
22515;SDS011;11424;48.860;9.624;2023-07-20T14:30:43;46.5;;;49.4;;
22515;SDS011;11424;48.860;9.624;2023-07-20T14:35:43;42.1;;;44.4;;
22515;SDS011;11424;48.860;9.624;2023-07-20T14:40:43;35.1;;;36.6;;
22515;SDS011;11424;48.860;9.624;2023-07-20T14:45:43;35.9;;;37.6;;
22515;SDS011;11424;48.860;9.624;2023-07-20T14:50:43;34.5;;;36;;
22515;SDS011;11424;48.860;9.624;2023-07-20T14:55:43;42.4;;;44.9;;
22515;SDS011;11424;48.860;9.624;2023-07-20T15:00:43;41.7;;;44;;
22515;SDS011;11424;48.860;9.624;2023-07-20T15:05:43;39.8;;;42.3;;
22515;SDS011;11424;48.860;9.624;2023-07-20T15:10:43;39;;;41.2;;
22515;SDS011;11424;48.860;9.624;2023-07-20T15:15:43;36.9;;;39.2;;
22515;SDS011;11424;48.860;9.624;2023-07-20T15:20:43;33.5;;;34.9;;
22515;SDS011;11424;48.860;9.624;2023-07-20T15:25:43;33.1;;;34.6;;
22515;SDS011;11424;48.860;9.624;2023-07-20T15:30:43;33.1;;;34.5;;
22515;SDS011;11424;48.860;9.624;2023-07-20T15:35:43;36.8;;;39;;
22515;SDS011;11424;48.860;9.624;2023-07-20T15:40:43;36.5;;;38.7;;
22515;SDS011;11424;48.860;9.624;2023-07-20T15:45:46;20.8;;;21.9;;
22515;SDS011;11424;48.860;9.624;2023-07-20T15:50:44;19.4;;;20.4;;
22515;SDS011;11424;48.860;9.624;2023-07-20T15:55:43;25.6;;;27.1;;
22515;SDS011;11424;48.860;9.624;2023-07-20T16:00:43;20.6;;;21.7;;
22515;SDS011;11424;48.860;9.624;2023-07-20T16:05:43;27.6;;;29.1;;
22515;SDS011;11424;48.860;9.624;2023-07-20T16:10:43;37.3;;;39;;
22515;SDS011;11424;48.860;9.624;2023-07-20T16:15:43;47.8;;;50.6;;
22515;SDS011;11424;48.860;9.624;2023-07-20T16:20:43;43.5;;;46;;
22515;SDS011;11424;48.860;9.624;2023-07-20T16:25:44;44.8;;;47.3;;
22515;SDS011;11424;48.860;9.624;2023-07-20T16:30:43;45.4;;;48;;
22515;SDS011;11424;48.860;9.624;2023-07-20T16:35:43;38.2;;;40.5;;
22515;SDS011;11424;48.860;9.624;2023-07-20T16:40:43;36.7;;;38.9;;
22515;SDS011;11424;48.860;9.624;2023-07-20T16:45:43;36.4;;;38.6;;
22515;SDS011;11424;48.860;9.624;2023-07-20T16:50:43;32.5;;;33.8;;
22515;SDS011;11424;48.860;9.624;2023-07-20T16:55:43;37;;;39.2;;
22515;SDS011;11424;48.860;9.624;2023-07-20T17:00:45;37.9;;;40.2;;
22515;SDS011;11424;48.860;9.624;2023-07-20T17:05:43;39;;;41.2;;
22515;SDS011;11424;48.860;9.624;2023-07-20T17:10:43;37.8;;;40.1;;
22515;SDS011;11424;48.860;9.624;2023-07-20T17:15:45;37.7;;;39.9;;
22515;SDS011;11424;48.860;9.624;2023-07-20T17:20:43;37.3;;;39.4;;
22515;SDS011;11424;48.860;9.624;2023-07-20T17:25:43;31.6;;;33.7;;
22515;SDS011;11424;48.860;9.624;2023-07-20T17:30:43;36.5;;;38.7;;
22515;SDS011;11424;48.860;9.624;2023-07-20T17:35:43;36.9;;;39.3;;
22515;SDS011;11424;48.860;9.624;2023-07-20T17:40:43;35.7;;;37.8;;
22515;SDS011;11424;48.860;9.624;2023-07-20T17:45:43;36.4;;;38.6;;
22515;SDS011;11424;48.860;9.624;2023-07-20T17:50:43;37;;;39.3;;
22515;SDS011;11424;48.860;9.624;2023-07-20T17:55:43;36.3;;;38.5;;
22515;SDS011;11424;48.860;9.624;2023-07-20T18:00:43;35.7;;;37.8;;
22515;SDS011;11424;48.860;9.624;2023-07-20T18:05:43;36.5;;;38.8;;
22515;SDS011;11424;48.860;9.624;2023-07-20T18:10:43;35.7;;;37.9;;
22515;SDS011;11424;48.860;9.624;2023-07-20T18:15:43;36.2;;;38.2;;
22515;SDS011;11424;48.860;9.624;2023-07-20T18:20:43;31.3;;;32.6;;
22515;SDS011;11424;48.860;9.624;2023-07-20T18:25:43;32.4;;;33.7;;
22515;SDS011;11424;48.860;9.624;2023-07-20T18:30:43;33.3;;;34.7;;
22515;SDS011;11424;48.860;9.624;2023-07-20T18:35:43;37.2;;;39.2;;
22515;SDS011;11424;48.860;9.624;2023-07-20T18:40:43;34.6;;;36.7;;
22515;SDS011;11424;48.860;9.624;2023-07-20T18:45:43;36.6;;;38.7;;
22515;SDS011;11424;48.860;9.624;2023-07-20T18:50:43;40.1;;;42.5;;
22515;SDS011;11424;48.860;9.624;2023-07-20T18:55:43;38.7;;;41.1;;
22515;SDS011;11424;48.860;9.624;2023-07-20T19:00:43;32.7;;;34.1;;
22515;SDS011;11424;48.860;9.624;2023-07-20T19:05:44;33.1;;;34.5;;
22515;SDS011;11424;48.860;9.624;2023-07-20T19:10:43;34.4;;;35.9;;
22515;SDS011;11424;48.860;9.624;2023-07-20T19:15:47;37.4;;;39.3;;
22515;SDS011;11424;48.860;9.624;2023-07-20T19:20:43;37.1;;;39.3;;
22515;SDS011;11424;48.860;9.624;2023-07-20T19:25:43;37.6;;;40;;
22515;SDS011;11424;48.860;9.624;2023-07-20T19:30:43;38.4;;;40.7;;
22515;SDS011;11424;48.860;9.624;2023-07-20T19:35:43;39.6;;;41.9;;
22515;SDS011;11424;48.860;9.624;2023-07-20T19:40:43;39.1;;;41.6;;
22515;SDS011;11424;48.860;9.624;2023-07-20T19:45:43;34.7;;;36.2;;
22515;SDS011;11424;48.860;9.624;2023-07-20T19:50:43;36.6;;;38.1;;
22515;SDS011;11424;48.860;9.624;2023-07-20T19:55:43;34.3;;;35.8;;
22515;SDS011;11424;48.860;9.624;2023-07-20T20:00:43;38.2;;;40.4;;
22515;SDS011;11424;48.860;9.624;2023-07-20T20:05:43;40.3;;;42.8;;
22515;SDS011;11424;48.860;9.624;2023-07-20T20:10:43;41.6;;;44.2;;
22515;SDS011;11424;48.860;9.624;2023-07-20T20:15:43;36.7;;;39.2;;
22515;SDS011;11424;48.860;9.624;2023-07-20T20:20:44;9.2;;;12.4;;
22515;SDS011;11424;48.860;9.624;2023-07-20T20:25:43;11.5;;;14.8;;
22515;SDS011;11424;48.860;9.624;2023-07-20T20:30:43;4.2;;;4.4;;
22515;SDS011;11424;48.860;9.624;2023-07-20T20:35:43;5.7;;;6;;
22515;SDS011;11424;48.860;9.624;2023-07-20T20:40:43;15.5;;;18.8;;
22515;SDS011;11424;48.860;9.624;2023-07-20T20:45:43;16.6;;;18.5;;
22515;SDS011;11424;48.860;9.624;2023-07-20T20:50:43;22.8;;;25;;
22515;SDS011;11424;48.860;9.624;2023-07-20T20:55:43;16.1;;;19.8;;
22515;SDS011;11424;48.860;9.624;2023-07-20T21:00:43;25.5;;;28.5;;
22515;SDS011;11424;48.860;9.624;2023-07-20T21:05:43;24.9;;;27.1;;
22515;SDS011;11424;48.860;9.624;2023-07-20T21:10:43;19.8;;;21.7;;
22515;SDS011;11424;48.860;9.624;2023-07-20T21:15:43;25.4;;;26.5;;
22515;SDS011;11424;48.860;9.624;2023-07-20T21:20:43;34.8;;;37.4;;
22515;SDS011;11424;48.860;9.624;2023-07-20T21:25:43;12.8;;;16.3;;
22515;SDS011;11424;48.860;9.624;2023-07-20T21:30:44;10.1;;;15.2;;
22515;SDS011;11424;48.860;9.624;2023-07-20T21:35:43;12.3;;;16.6;;
22515;SDS011;11424;48.860;9.624;2023-07-20T21:40:43;11.9;;;17.6;;
22515;SDS011;11424;48.860;9.624;2023-07-20T21:45:43;13.7;;;16.7;;
22515;SDS011;11424;48.860;9.624;2023-07-20T21:50:46;10.8;;;16.3;;
22515;SDS011;11424;48.860;9.624;2023-07-20T21:55:43;11.8;;;14.3;;
22515;SDS011;11424;48.860;9.624;2023-07-20T22:00:43;11.8;;;14.9;;
22515;SDS011;11424;48.860;9.624;2023-07-20T22:05:43;14.9;;;16.7;;
22515;SDS011;11424;48.860;9.624;2023-07-20T22:10:43;34.5;;;37;;
22515;SDS011;11424;48.860;9.624;2023-07-20T22:15:43;29.4;;;31.7;;
22515;SDS011;11424;48.860;9.624;2023-07-20T22:20:43;39.1;;;41.9;;
22515;SDS011;11424;48.860;9.624;2023-07-20T22:25:43;47.5;;;50.7;;
22515;SDS011;11424;48.860;9.624;2023-07-20T22:30:43;48.2;;;51.4;;
22515;SDS011;11424;48.860;9.624;2023-07-20T22:35:43;41.5;;;44.5;;
22515;SDS011;11424;48.860;9.624;2023-07-20T22:40:43;39.3;;;41.1;;
22515;SDS011;11424;48.860;9.624;2023-07-20T22:45:43;41.5;;;43.5;;
22515;SDS011;11424;48.860;9.624;2023-07-20T22:50:43;42.5;;;44.6;;
22515;SDS011;11424;48.860;9.624;2023-07-20T22:55:43;46;;;48.4;;
22515;SDS011;11424;48.860;9.624;2023-07-20T23:00:44;54.9;;;58.6;;
22515;SDS011;11424;48.860;9.624;2023-07-20T23:05:43;58.5;;;63;;
22515;SDS011;11424;48.860;9.624;2023-07-20T23:10:43;63.2;;;68.1;;
22515;SDS011;11424;48.860;9.624;2023-07-20T23:15:43;60.4;;;65.2;;
22515;SDS011;11424;48.860;9.624;2023-07-20T23:20:43;54.1;;;58.1;;
22515;SDS011;11424;48.860;9.624;2023-07-20T23:25:43;48.3;;;50.9;;
22515;SDS011;11424;48.860;9.624;2023-07-20T23:30:44;45.8;;;48.2;;
22515;SDS011;11424;48.860;9.624;2023-07-20T23:35:43;45.5;;;47.9;;
22515;SDS011;11424;48.860;9.624;2023-07-20T23:40:43;55.9;;;59.9;;
22515;SDS011;11424;48.860;9.624;2023-07-20T23:45:43;58.9;;;63.4;;
22515;SDS011;11424;48.860;9.624;2023-07-20T23:50:43;62.4;;;67.2;;
22515;SDS011;11424;48.860;9.624;2023-07-20T23:55:43;62.1;;;66.6;;
